sensor_id;sensor_type;location;lat;lon;timestamp;P1;durP1;ratioP1;P2;durP2;ratioP2
31306;SDS011;17935;51.120;13.132;2023-05-10T00:01:51;10.80;;;5.30;;
31306;SDS011;17935;51.120;13.132;2023-05-10T00:04:17;10.45;;;5.40;;
31306;SDS011;17935;51.120;13.132;2023-05-10T00:06:43;8.30;;;5.00;;
31306;SDS011;17935;51.120;13.132;2023-05-10T00:09:09;11.90;;;5.15;;
31306;SDS011;17935;51.120;13.132;2023-05-10T00:11:35;7.30;;;4.90;;
31306;SDS011;17935;51.120;13.132;2023-05-10T00:14:00;7.65;;;4.72;;
31306;SDS011;17935;51.120;13.132;2023-05-10T00:16:26;7.90;;;5.43;;
31306;SDS011;17935;51.120;13.132;2023-05-10T00:18:52;8.50;;;5.30;;
31306;SDS011;17935;51.120;13.132;2023-05-10T00:21:18;7.25;;;5.13;;
31306;SDS011;17935;51.120;13.132;2023-05-10T00:23:44;10.50;;;4.93;;
31306;SDS011;17935;51.120;13.132;2023-05-10T00:26:10;6.57;;;5.03;;
31306;SDS011;17935;51.120;13.132;2023-05-10T00:28:36;5.28;;;4.78;;
31306;SDS011;17935;51.120;13.132;2023-05-10T00:31:02;8.75;;;5.32;;
31306;SDS011;17935;51.120;13.132;2023-05-10T00:33:28;7.15;;;5.55;;
31306;SDS011;17935;51.120;13.132;2023-05-10T00:35:54;11.07;;;5.40;;
31306;SDS011;17935;51.120;13.132;2023-05-10T00:38:20;15.02;;;5.60;;
31306;SDS011;17935;51.120;13.132;2023-05-10T00:40:47;10.02;;;5.78;;
31306;SDS011;17935;51.120;13.132;2023-05-10T00:43:13;25.20;;;5.65;;
31306;SDS011;17935;51.120;13.132;2023-05-10T00:45:40;17.40;;;5.38;;
31306;SDS011;17935;51.120;13.132;2023-05-10T00:48:06;9.50;;;5.38;;
31306;SDS011;17935;51.120;13.132;2023-05-10T00:50:32;10.10;;;5.38;;
31306;SDS011;17935;51.120;13.132;2023-05-10T00:52:59;7.93;;;5.63;;
31306;SDS011;17935;51.120;13.132;2023-05-10T00:55:25;13.25;;;5.25;;
31306;SDS011;17935;51.120;13.132;2023-05-10T00:57:52;6.65;;;5.45;;
31306;SDS011;17935;51.120;13.132;2023-05-10T01:00:18;8.50;;;5.57;;
31306;SDS011;17935;51.120;13.132;2023-05-10T01:02:44;10.50;;;6.57;;
31306;SDS011;17935;51.120;13.132;2023-05-10T01:05:11;12.98;;;5.70;;
31306;SDS011;17935;51.120;13.132;2023-05-10T01:07:37;6.95;;;5.80;;
31306;SDS011;17935;51.120;13.132;2023-05-10T01:10:03;6.82;;;5.18;;
31306;SDS011;17935;51.120;13.132;2023-05-10T01:12:28;10.25;;;5.85;;
31306;SDS011;17935;51.120;13.132;2023-05-10T01:14:55;8.52;;;5.32;;
31306;SDS011;17935;51.120;13.132;2023-05-10T01:17:21;10.20;;;5.70;;
31306;SDS011;17935;51.120;13.132;2023-05-10T01:19:47;7.97;;;5.65;;
31306;SDS011;17935;51.120;13.132;2023-05-10T01:22:25;6.53;;;5.10;;
31306;SDS011;17935;51.120;13.132;2023-05-10T01:25:07;10.32;;;5.63;;
31306;SDS011;17935;51.120;13.132;2023-05-10T01:27:47;11.52;;;5.47;;
31306;SDS011;17935;51.120;13.132;2023-05-10T01:30:35;9.18;;;5.47;;
31306;SDS011;17935;51.120;13.132;2023-05-10T01:33:10;17.67;;;7.43;;
31306;SDS011;17935;51.120;13.132;2023-05-10T01:38:07;10.15;;;6.18;;
31306;SDS011;17935;51.120;13.132;2023-05-10T01:40:37;8.73;;;5.00;;
31306;SDS011;17935;51.120;13.132;2023-05-10T01:43:07;7.57;;;5.38;;
31306;SDS011;17935;51.120;13.132;2023-05-10T01:45:39;8.57;;;5.65;;
31306;SDS011;17935;51.120;13.132;2023-05-10T01:48:08;11.18;;;5.55;;
31306;SDS011;17935;51.120;13.132;2023-05-10T01:50:35;7.63;;;5.25;;
31306;SDS011;17935;51.120;13.132;2023-05-10T01:53:02;8.98;;;6.43;;
31306;SDS011;17935;51.120;13.132;2023-05-10T01:55:30;10.20;;;5.88;;
31306;SDS011;17935;51.120;13.132;2023-05-10T01:58:07;8.45;;;5.88;;
31306;SDS011;17935;51.120;13.132;2023-05-10T02:00:34;7.82;;;5.55;;
31306;SDS011;17935;51.120;13.132;2023-05-10T02:03:01;7.55;;;5.57;;
31306;SDS011;17935;51.120;13.132;2023-05-10T02:05:29;7.47;;;5.63;;
31306;SDS011;17935;51.120;13.132;2023-05-10T02:07:57;12.57;;;6.25;;
31306;SDS011;17935;51.120;13.132;2023-05-10T02:10:25;6.88;;;5.50;;
31306;SDS011;17935;51.120;13.132;2023-05-10T02:12:51;14.10;;;6.47;;
31306;SDS011;17935;51.120;13.132;2023-05-10T02:15:20;9.55;;;6.15;;
31306;SDS011;17935;51.120;13.132;2023-05-10T02:17:48;10.13;;;5.57;;
31306;SDS011;17935;51.120;13.132;2023-05-10T02:20:14;8.45;;;5.95;;
31306;SDS011;17935;51.120;13.132;2023-05-10T02:22:41;12.52;;;6.00;;
31306;SDS011;17935;51.120;13.132;2023-05-10T02:25:07;8.32;;;6.45;;
31306;SDS011;17935;51.120;13.132;2023-05-10T02:27:34;13.40;;;6.50;;
31306;SDS011;17935;51.120;13.132;2023-05-10T02:30:01;8.75;;;6.38;;
31306;SDS011;17935;51.120;13.132;2023-05-10T02:32:27;9.57;;;7.28;;
31306;SDS011;17935;51.120;13.132;2023-05-10T02:34:53;9.20;;;6.65;;
31306;SDS011;17935;51.120;13.132;2023-05-10T02:37:20;9.20;;;7.15;;
31306;SDS011;17935;51.120;13.132;2023-05-10T02:39:47;10.32;;;7.55;;
31306;SDS011;17935;51.120;13.132;2023-05-10T02:42:18;11.63;;;7.15;;
31306;SDS011;17935;51.120;13.132;2023-05-10T02:44:45;16.35;;;8.07;;
31306;SDS011;17935;51.120;13.132;2023-05-10T02:47:13;14.07;;;8.18;;
31306;SDS011;17935;51.120;13.132;2023-05-10T02:49:38;10.27;;;7.57;;
31306;SDS011;17935;51.120;13.132;2023-05-10T02:52:05;9.88;;;7.80;;
31306;SDS011;17935;51.120;13.132;2023-05-10T02:54:33;16.05;;;8.90;;
31306;SDS011;17935;51.120;13.132;2023-05-10T02:57:03;13.70;;;8.00;;
31306;SDS011;17935;51.120;13.132;2023-05-10T02:59:30;12.80;;;8.48;;
31306;SDS011;17935;51.120;13.132;2023-05-10T03:01:57;13.10;;;8.80;;
31306;SDS011;17935;51.120;13.132;2023-05-10T03:04:23;12.45;;;8.68;;
31306;SDS011;17935;51.120;13.132;2023-05-10T03:06:49;13.93;;;8.43;;
31306;SDS011;17935;51.120;13.132;2023-05-10T03:09:15;13.77;;;9.30;;
31306;SDS011;17935;51.120;13.132;2023-05-10T03:16:44;12.95;;;7.80;;
31306;SDS011;17935;51.120;13.132;2023-05-10T03:19:13;11.52;;;7.63;;
31306;SDS011;17935;51.120;13.132;2023-05-10T03:21:41;12.57;;;8.20;;
31306;SDS011;17935;51.120;13.132;2023-05-10T03:24:10;13.43;;;8.30;;
31306;SDS011;17935;51.120;13.132;2023-05-10T03:26:39;11.50;;;8.38;;
31306;SDS011;17935;51.120;13.132;2023-05-10T03:29:06;15.93;;;8.25;;
31306;SDS011;17935;51.120;13.132;2023-05-10T03:31:32;11.60;;;8.85;;
31306;SDS011;17935;51.120;13.132;2023-05-10T03:33:58;11.75;;;8.88;;
31306;SDS011;17935;51.120;13.132;2023-05-10T03:36:24;15.35;;;8.73;;
31306;SDS011;17935;51.120;13.132;2023-05-10T03:38:50;13.88;;;8.68;;
31306;SDS011;17935;51.120;13.132;2023-05-10T03:41:16;12.63;;;7.78;;
31306;SDS011;17935;51.120;13.132;2023-05-10T03:43:42;13.02;;;7.43;;
31306;SDS011;17935;51.120;13.132;2023-05-10T03:46:07;13.45;;;7.93;;
31306;SDS011;17935;51.120;13.132;2023-05-10T03:48:33;11.57;;;8.15;;
31306;SDS011;17935;51.120;13.132;2023-05-10T03:50:59;10.93;;;7.75;;
31306;SDS011;17935;51.120;13.132;2023-05-10T03:53:25;12.00;;;7.93;;
31306;SDS011;17935;51.120;13.132;2023-05-10T03:55:51;9.77;;;7.78;;
31306;SDS011;17935;51.120;13.132;2023-05-10T03:58:17;12.57;;;7.30;;
31306;SDS011;17935;51.120;13.132;2023-05-10T04:00:43;11.07;;;7.03;;
31306;SDS011;17935;51.120;13.132;2023-05-10T04:03:10;10.55;;;7.72;;
31306;SDS011;17935;51.120;13.132;2023-05-10T04:05:36;11.77;;;7.78;;
31306;SDS011;17935;51.120;13.132;2023-05-10T04:08:02;10.07;;;6.40;;
31306;SDS011;17935;51.120;13.132;2023-05-10T04:10:28;9.15;;;5.35;;
31306;SDS011;17935;51.120;13.132;2023-05-10T04:12:54;7.97;;;5.20;;
31306;SDS011;17935;51.120;13.132;2023-05-10T04:15:20;8.60;;;5.15;;
31306;SDS011;17935;51.120;13.132;2023-05-10T04:17:46;6.15;;;4.07;;
31306;SDS011;17935;51.120;13.132;2023-05-10T04:20:12;7.18;;;4.55;;
31306;SDS011;17935;51.120;13.132;2023-05-10T04:22:38;8.23;;;4.07;;
31306;SDS011;17935;51.120;13.132;2023-05-10T04:25:04;4.93;;;3.78;;
31306;SDS011;17935;51.120;13.132;2023-05-10T04:27:31;5.18;;;4.18;;
31306;SDS011;17935;51.120;13.132;2023-05-10T04:29:57;5.90;;;4.32;;
31306;SDS011;17935;51.120;13.132;2023-05-10T04:32:23;5.47;;;3.92;;
31306;SDS011;17935;51.120;13.132;2023-05-10T04:34:49;7.07;;;3.92;;
31306;SDS011;17935;51.120;13.132;2023-05-10T04:37:16;5.32;;;3.67;;
31306;SDS011;17935;51.120;13.132;2023-05-10T04:39:42;5.88;;;4.20;;
31306;SDS011;17935;51.120;13.132;2023-05-10T04:42:08;5.28;;;3.83;;
31306;SDS011;17935;51.120;13.132;2023-05-10T04:44:34;5.63;;;4.25;;
31306;SDS011;17935;51.120;13.132;2023-05-10T04:47:00;7.43;;;4.10;;
31306;SDS011;17935;51.120;13.132;2023-05-10T04:49:27;5.53;;;4.22;;
31306;SDS011;17935;51.120;13.132;2023-05-10T04:51:53;6.65;;;3.63;;
31306;SDS011;17935;51.120;13.132;2023-05-10T04:54:19;4.75;;;3.30;;
31306;SDS011;17935;51.120;13.132;2023-05-10T04:56:45;3.78;;;3.00;;
31306;SDS011;17935;51.120;13.132;2023-05-10T04:59:10;8.23;;;3.83;;
31306;SDS011;17935;51.120;13.132;2023-05-10T05:01:36;5.35;;;3.38;;
31306;SDS011;17935;51.120;13.132;2023-05-10T05:04:02;4.18;;;3.72;;
31306;SDS011;17935;51.120;13.132;2023-05-10T05:06:28;4.82;;;3.50;;
31306;SDS011;17935;51.120;13.132;2023-05-10T05:08:54;4.15;;;3.10;;
31306;SDS011;17935;51.120;13.132;2023-05-10T05:11:20;4.68;;;3.50;;
31306;SDS011;17935;51.120;13.132;2023-05-10T05:13:46;6.00;;;3.38;;
31306;SDS011;17935;51.120;13.132;2023-05-10T05:16:12;4.03;;;3.42;;
31306;SDS011;17935;51.120;13.132;2023-05-10T05:18:38;7.88;;;3.13;;
31306;SDS011;17935;51.120;13.132;2023-05-10T05:21:13;5.15;;;2.85;;
31306;SDS011;17935;51.120;13.132;2023-05-10T05:23:39;3.55;;;3.08;;
31306;SDS011;17935;51.120;13.132;2023-05-10T05:26:05;4.30;;;2.67;;
31306;SDS011;17935;51.120;13.132;2023-05-10T05:28:31;4.82;;;2.63;;
31306;SDS011;17935;51.120;13.132;2023-05-10T05:30:59;4.13;;;3.00;;
31306;SDS011;17935;51.120;13.132;2023-05-10T05:33:25;6.88;;;2.92;;
31306;SDS011;17935;51.120;13.132;2023-05-10T05:35:51;4.95;;;2.38;;
31306;SDS011;17935;51.120;13.132;2023-05-10T05:38:17;4.15;;;2.70;;
31306;SDS011;17935;51.120;13.132;2023-05-10T05:40:43;6.78;;;2.60;;
31306;SDS011;17935;51.120;13.132;2023-05-10T05:43:10;2.95;;;2.50;;
31306;SDS011;17935;51.120;13.132;2023-05-10T05:45:36;2.45;;;2.25;;
31306;SDS011;17935;51.120;13.132;2023-05-10T05:48:02;2.70;;;2.50;;
31306;SDS011;17935;51.120;13.132;2023-05-10T05:50:28;5.15;;;2.55;;
31306;SDS011;17935;51.120;13.132;2023-05-10T05:52:53;5.00;;;2.28;;
31306;SDS011;17935;51.120;13.132;2023-05-10T05:55:20;2.72;;;1.88;;
31306;SDS011;17935;51.120;13.132;2023-05-10T05:57:46;6.20;;;2.42;;
31306;SDS011;17935;51.120;13.132;2023-05-10T06:00:13;7.88;;;2.00;;
31306;SDS011;17935;51.120;13.132;2023-05-10T06:02:39;2.92;;;1.75;;
31306;SDS011;17935;51.120;13.132;2023-05-10T06:05:05;2.95;;;2.00;;
31306;SDS011;17935;51.120;13.132;2023-05-10T06:07:31;2.95;;;1.83;;
31306;SDS011;17935;51.120;13.132;2023-05-10T06:09:57;2.20;;;1.95;;
31306;SDS011;17935;51.120;13.132;2023-05-10T06:12:23;1.95;;;1.83;;
31306;SDS011;17935;51.120;13.132;2023-05-10T06:14:49;3.90;;;1.90;;
31306;SDS011;17935;51.120;13.132;2023-05-10T06:17:15;2.00;;;1.90;;
31306;SDS011;17935;51.120;13.132;2023-05-10T06:19:41;4.20;;;1.90;;
31306;SDS011;17935;51.120;13.132;2023-05-10T06:22:07;3.38;;;1.83;;
31306;SDS011;17935;51.120;13.132;2023-05-10T06:24:33;5.72;;;2.10;;
31306;SDS011;17935;51.120;13.132;2023-05-10T06:26:58;6.75;;;2.17;;
31306;SDS011;17935;51.120;13.132;2023-05-10T06:29:25;7.78;;;2.40;;
31306;SDS011;17935;51.120;13.132;2023-05-10T06:31:51;8.38;;;3.53;;
31306;SDS011;17935;51.120;13.132;2023-05-10T06:34:17;7.93;;;3.10;;
31306;SDS011;17935;51.120;13.132;2023-05-10T06:36:43;4.22;;;2.03;;
31306;SDS011;17935;51.120;13.132;2023-05-10T06:39:09;1.92;;;1.70;;
31306;SDS011;17935;51.120;13.132;2023-05-10T06:41:36;3.97;;;1.92;;
31306;SDS011;17935;51.120;13.132;2023-05-10T06:44:03;3.65;;;1.92;;
31306;SDS011;17935;51.120;13.132;2023-05-10T06:46:29;4.13;;;2.15;;
31306;SDS011;17935;51.120;13.132;2023-05-10T06:48:55;2.40;;;1.88;;
31306;SDS011;17935;51.120;13.132;2023-05-10T06:51:20;3.10;;;1.95;;
31306;SDS011;17935;51.120;13.132;2023-05-10T06:53:46;3.67;;;1.65;;
31306;SDS011;17935;51.120;13.132;2023-05-10T06:56:12;3.03;;;2.03;;
31306;SDS011;17935;51.120;13.132;2023-05-10T06:58:38;3.08;;;2.00;;
31306;SDS011;17935;51.120;13.132;2023-05-10T07:01:05;1.80;;;1.70;;
31306;SDS011;17935;51.120;13.132;2023-05-10T07:03:31;1.75;;;1.60;;
31306;SDS011;17935;51.120;13.132;2023-05-10T07:06:03;3.72;;;2.28;;
31306;SDS011;17935;51.120;13.132;2023-05-10T07:08:30;2.42;;;1.85;;
31306;SDS011;17935;51.120;13.132;2023-05-10T07:10:59;5.72;;;2.08;;
31306;SDS011;17935;51.120;13.132;2023-05-10T07:13:25;14.73;;;3.05;;
31306;SDS011;17935;51.120;13.132;2023-05-10T07:15:51;2.40;;;2.20;;
31306;SDS011;17935;51.120;13.132;2023-05-10T07:18:17;2.33;;;1.85;;
31306;SDS011;17935;51.120;13.132;2023-05-10T07:20:43;4.20;;;1.95;;
31306;SDS011;17935;51.120;13.132;2023-05-10T07:23:09;5.93;;;2.00;;
31306;SDS011;17935;51.120;13.132;2023-05-10T07:25:35;3.70;;;1.92;;
31306;SDS011;17935;51.120;13.132;2023-05-10T07:28:01;5.05;;;1.80;;
31306;SDS011;17935;51.120;13.132;2023-05-10T07:30:26;4.10;;;1.90;;
31306;SDS011;17935;51.120;13.132;2023-05-10T07:32:52;3.67;;;1.90;;
31306;SDS011;17935;51.120;13.132;2023-05-10T07:35:18;5.82;;;2.03;;
31306;SDS011;17935;51.120;13.132;2023-05-10T07:37:44;1.80;;;1.60;;
31306;SDS011;17935;51.120;13.132;2023-05-10T07:40:10;2.08;;;1.88;;
31306;SDS011;17935;51.120;13.132;2023-05-10T07:42:36;8.18;;;2.00;;
31306;SDS011;17935;51.120;13.132;2023-05-10T07:45:03;6.40;;;1.80;;
31306;SDS011;17935;51.120;13.132;2023-05-10T07:47:29;1.75;;;1.52;;
31306;SDS011;17935;51.120;13.132;2023-05-10T07:49:55;4.05;;;1.60;;
31306;SDS011;17935;51.120;13.132;2023-05-10T07:52:20;2.90;;;1.88;;
31306;SDS011;17935;51.120;13.132;2023-05-10T07:54:46;2.67;;;1.50;;
31306;SDS011;17935;51.120;13.132;2023-05-10T07:57:12;2.03;;;1.70;;
31306;SDS011;17935;51.120;13.132;2023-05-10T07:59:40;3.72;;;1.80;;
31306;SDS011;17935;51.120;13.132;2023-05-10T08:02:06;4.28;;;2.00;;
31306;SDS011;17935;51.120;13.132;2023-05-10T08:04:32;3.45;;;2.30;;
31306;SDS011;17935;51.120;13.132;2023-05-10T08:06:58;3.78;;;1.75;;
31306;SDS011;17935;51.120;13.132;2023-05-10T08:09:24;2.08;;;1.88;;
31306;SDS011;17935;51.120;13.132;2023-05-10T08:11:50;6.82;;;2.00;;
31306;SDS011;17935;51.120;13.132;2023-05-10T08:14:16;3.90;;;2.00;;
31306;SDS011;17935;51.120;13.132;2023-05-10T08:16:42;2.30;;;1.80;;
31306;SDS011;17935;51.120;13.132;2023-05-10T08:19:08;5.13;;;2.25;;
31306;SDS011;17935;51.120;13.132;2023-05-10T08:21:33;2.53;;;1.92;;
31306;SDS011;17935;51.120;13.132;2023-05-10T08:24:00;3.72;;;2.40;;
31306;SDS011;17935;51.120;13.132;2023-05-10T08:26:26;2.80;;;1.80;;
31306;SDS011;17935;51.120;13.132;2023-05-10T08:28:52;2.33;;;2.03;;
31306;SDS011;17935;51.120;13.132;2023-05-10T08:31:18;6.93;;;1.80;;
31306;SDS011;17935;51.120;13.132;2023-05-10T08:33:44;2.95;;;2.05;;
31306;SDS011;17935;51.120;13.132;2023-05-10T08:36:10;2.22;;;2.05;;
31306;SDS011;17935;51.120;13.132;2023-05-10T08:38:42;2.88;;;2.00;;
31306;SDS011;17935;51.120;13.132;2023-05-10T08:41:07;6.25;;;2.17;;
31306;SDS011;17935;51.120;13.132;2023-05-10T08:43:34;5.00;;;2.25;;
31306;SDS011;17935;51.120;13.132;2023-05-10T08:46:01;3.10;;;1.80;;
31306;SDS011;17935;51.120;13.132;2023-05-10T08:48:28;4.50;;;1.88;;
31306;SDS011;17935;51.120;13.132;2023-05-10T08:50:55;4.88;;;2.22;;
31306;SDS011;17935;51.120;13.132;2023-05-10T08:53:24;3.13;;;2.15;;
31306;SDS011;17935;51.120;13.132;2023-05-10T08:55:51;2.13;;;1.88;;
31306;SDS011;17935;51.120;13.132;2023-05-10T08:58:18;3.30;;;2.00;;
31306;SDS011;17935;51.120;13.132;2023-05-10T09:00:44;3.08;;;1.80;;
31306;SDS011;17935;51.120;13.132;2023-05-10T09:03:11;2.13;;;1.92;;
31306;SDS011;17935;51.120;13.132;2023-05-10T09:05:37;3.13;;;2.10;;
31306;SDS011;17935;51.120;13.132;2023-05-10T09:08:03;2.83;;;1.90;;
31306;SDS011;17935;51.120;13.132;2023-05-10T09:10:30;4.53;;;2.15;;
31306;SDS011;17935;51.120;13.132;2023-05-10T09:12:56;3.58;;;2.00;;
31306;SDS011;17935;51.120;13.132;2023-05-10T09:15:22;2.25;;;2.05;;
31306;SDS011;17935;51.120;13.132;2023-05-10T09:17:49;4.15;;;2.20;;
31306;SDS011;17935;51.120;13.132;2023-05-10T09:20:15;2.67;;;1.85;;
31306;SDS011;17935;51.120;13.132;2023-05-10T09:22:42;5.90;;;2.00;;
31306;SDS011;17935;51.120;13.132;2023-05-10T09:27:34;3.70;;;2.15;;
31306;SDS011;17935;51.120;13.132;2023-05-10T09:30:01;2.15;;;1.92;;
31306;SDS011;17935;51.120;13.132;2023-05-10T09:37:41;2.40;;;2.20;;
31306;SDS011;17935;51.120;13.132;2023-05-10T09:40:07;2.60;;;2.05;;
31306;SDS011;17935;51.120;13.132;2023-05-10T09:42:34;2.63;;;2.30;;
31306;SDS011;17935;51.120;13.132;2023-05-10T09:45:03;4.43;;;2.40;;
31306;SDS011;17935;51.120;13.132;2023-05-10T09:47:31;4.20;;;2.35;;
31306;SDS011;17935;51.120;13.132;2023-05-10T09:49:57;5.72;;;3.03;;
31306;SDS011;17935;51.120;13.132;2023-05-10T09:52:28;3.25;;;2.60;;
31306;SDS011;17935;51.120;13.132;2023-05-10T09:54:54;3.17;;;2.80;;
31306;SDS011;17935;51.120;13.132;2023-05-10T09:57:20;6.45;;;2.65;;
31306;SDS011;17935;51.120;13.132;2023-05-10T09:59:47;7.82;;;2.40;;
31306;SDS011;17935;51.120;13.132;2023-05-10T10:02:13;6.10;;;2.58;;
31306;SDS011;17935;51.120;13.132;2023-05-10T10:04:39;6.75;;;3.03;;
31306;SDS011;17935;51.120;13.132;2023-05-10T10:07:06;6.50;;;3.17;;
31306;SDS011;17935;51.120;13.132;2023-05-10T10:09:32;3.20;;;2.75;;
31306;SDS011;17935;51.120;13.132;2023-05-10T10:12:01;2.55;;;2.17;;
31306;SDS011;17935;51.120;13.132;2023-05-10T10:14:28;4.90;;;2.90;;
31306;SDS011;17935;51.120;13.132;2023-05-10T10:16:54;5.47;;;2.78;;
31306;SDS011;17935;51.120;13.132;2023-05-10T10:19:20;7.65;;;3.00;;
31306;SDS011;17935;51.120;13.132;2023-05-10T10:21:47;3.85;;;2.67;;
31306;SDS011;17935;51.120;13.132;2023-05-10T10:24:12;3.28;;;2.85;;
31306;SDS011;17935;51.120;13.132;2023-05-10T10:26:38;4.55;;;2.72;;
31306;SDS011;17935;51.120;13.132;2023-05-10T10:31:55;5.38;;;3.17;;
31306;SDS011;17935;51.120;13.132;2023-05-10T10:34:30;3.60;;;3.30;;
31306;SDS011;17935;51.120;13.132;2023-05-10T10:36:57;4.63;;;2.97;;
31306;SDS011;17935;51.120;13.132;2023-05-10T10:39:23;4.10;;;3.08;;
31306;SDS011;17935;51.120;13.132;2023-05-10T10:41:53;4.50;;;3.25;;
31306;SDS011;17935;51.120;13.132;2023-05-10T10:44:23;4.72;;;3.60;;
31306;SDS011;17935;51.120;13.132;2023-05-10T10:52:23;7.35;;;3.60;;
31306;SDS011;17935;51.120;13.132;2023-05-10T10:54:58;7.00;;;3.70;;
31306;SDS011;17935;51.120;13.132;2023-05-10T10:57:24;8.35;;;3.45;;
31306;SDS011;17935;51.120;13.132;2023-05-10T10:59:51;4.25;;;3.22;;
31306;SDS011;17935;51.120;13.132;2023-05-10T11:02:33;5.95;;;3.15;;
31306;SDS011;17935;51.120;13.132;2023-05-10T11:05:00;4.63;;;2.45;;
31306;SDS011;17935;51.120;13.132;2023-05-10T11:07:26;6.07;;;3.55;;
31306;SDS011;17935;51.120;13.132;2023-05-10T11:09:52;5.28;;;3.53;;
31306;SDS011;17935;51.120;13.132;2023-05-10T11:12:17;10.93;;;3.50;;
31306;SDS011;17935;51.120;13.132;2023-05-10T11:14:49;5.10;;;3.55;;
31306;SDS011;17935;51.120;13.132;2023-05-10T11:17:24;3.80;;;3.40;;
31306;SDS011;17935;51.120;13.132;2023-05-10T11:20:06;5.97;;;2.92;;
31306;SDS011;17935;51.120;13.132;2023-05-10T11:22:34;7.72;;;3.22;;
31306;SDS011;17935;51.120;13.132;2023-05-10T11:25:15;3.22;;;2.78;;
31306;SDS011;17935;51.120;13.132;2023-05-10T11:27:41;3.40;;;3.10;;
31306;SDS011;17935;51.120;13.132;2023-05-10T11:30:07;5.75;;;3.58;;
31306;SDS011;17935;51.120;13.132;2023-05-10T11:32:36;6.13;;;4.35;;
31306;SDS011;17935;51.120;13.132;2023-05-10T11:35:09;6.82;;;3.33;;
31306;SDS011;17935;51.120;13.132;2023-05-10T11:37:36;9.60;;;3.10;;
31306;SDS011;17935;51.120;13.132;2023-05-10T11:40:03;8.65;;;2.90;;
31306;SDS011;17935;51.120;13.132;2023-05-10T11:42:29;8.15;;;3.42;;
31306;SDS011;17935;51.120;13.132;2023-05-10T11:44:55;7.70;;;3.60;;
31306;SDS011;17935;51.120;13.132;2023-05-10T11:47:21;5.60;;;3.22;;
31306;SDS011;17935;51.120;13.132;2023-05-10T11:49:47;5.15;;;3.47;;
31306;SDS011;17935;51.120;13.132;2023-05-10T11:52:13;4.95;;;3.17;;
31306;SDS011;17935;51.120;13.132;2023-05-10T11:54:50;9.10;;;3.40;;
31306;SDS011;17935;51.120;13.132;2023-05-10T11:57:17;11.20;;;3.95;;
31306;SDS011;17935;51.120;13.132;2023-05-10T11:59:44;4.10;;;3.00;;
31306;SDS011;17935;51.120;13.132;2023-05-10T12:02:10;4.15;;;2.67;;
31306;SDS011;17935;51.120;13.132;2023-05-10T12:04:36;3.47;;;2.17;;
31306;SDS011;17935;51.120;13.132;2023-05-10T12:07:02;2.38;;;1.80;;
31306;SDS011;17935;51.120;13.132;2023-05-10T12:09:28;2.35;;;1.85;;
31306;SDS011;17935;51.120;13.132;2023-05-10T12:11:55;4.60;;;2.10;;
31306;SDS011;17935;51.120;13.132;2023-05-10T12:14:21;2.95;;;1.80;;
31306;SDS011;17935;51.120;13.132;2023-05-10T12:16:49;4.63;;;2.30;;
31306;SDS011;17935;51.120;13.132;2023-05-10T12:19:18;2.42;;;2.03;;
31306;SDS011;17935;51.120;13.132;2023-05-10T12:21:47;3.33;;;1.90;;
31306;SDS011;17935;51.120;13.132;2023-05-10T12:24:13;4.35;;;1.98;;
31306;SDS011;17935;51.120;13.132;2023-05-10T12:26:45;8.57;;;2.60;;
31306;SDS011;17935;51.120;13.132;2023-05-10T12:29:17;8.90;;;2.70;;
31306;SDS011;17935;51.120;13.132;2023-05-10T12:31:57;7.15;;;2.47;;
31306;SDS011;17935;51.120;13.132;2023-05-10T12:34:33;2.90;;;2.60;;
31306;SDS011;17935;51.120;13.132;2023-05-10T12:37:00;6.68;;;2.03;;
31306;SDS011;17935;51.120;13.132;2023-05-10T12:39:38;5.18;;;2.53;;
31306;SDS011;17935;51.120;13.132;2023-05-10T12:42:04;4.50;;;2.42;;
31306;SDS011;17935;51.120;13.132;2023-05-10T12:44:31;2.83;;;2.63;;
31306;SDS011;17935;51.120;13.132;2023-05-10T12:46:57;3.22;;;2.25;;
31306;SDS011;17935;51.120;13.132;2023-05-10T12:49:23;21.67;;;2.72;;
31306;SDS011;17935;51.120;13.132;2023-05-10T12:51:48;3.97;;;2.65;;
31306;SDS011;17935;51.120;13.132;2023-05-10T12:54:14;3.80;;;2.65;;
31306;SDS011;17935;51.120;13.132;2023-05-10T12:56:40;5.65;;;2.33;;
31306;SDS011;17935;51.120;13.132;2023-05-10T12:59:07;3.10;;;2.58;;
31306;SDS011;17935;51.120;13.132;2023-05-10T13:01:33;6.80;;;2.60;;
31306;SDS011;17935;51.120;13.132;2023-05-10T13:03:59;3.95;;;2.40;;
31306;SDS011;17935;51.120;13.132;2023-05-10T13:06:25;5.93;;;2.53;;
31306;SDS011;17935;51.120;13.132;2023-05-10T13:08:51;2.40;;;1.98;;
31306;SDS011;17935;51.120;13.132;2023-05-10T13:11:17;2.33;;;2.13;;
31306;SDS011;17935;51.120;13.132;2023-05-10T13:13:44;3.67;;;2.40;;
31306;SDS011;17935;51.120;13.132;2023-05-10T13:16:10;3.55;;;2.30;;
31306;SDS011;17935;51.120;13.132;2023-05-10T13:18:36;5.07;;;1.77;;
31306;SDS011;17935;51.120;13.132;2023-05-10T13:21:02;2.25;;;1.90;;
31306;SDS011;17935;51.120;13.132;2023-05-10T13:23:30;2.00;;;1.80;;
31306;SDS011;17935;51.120;13.132;2023-05-10T13:25:56;18.90;;;3.28;;
31306;SDS011;17935;51.120;13.132;2023-05-10T13:28:22;2.38;;;1.90;;
31306;SDS011;17935;51.120;13.132;2023-05-10T13:30:48;3.70;;;1.80;;
31306;SDS011;17935;51.120;13.132;2023-05-10T13:33:14;5.32;;;1.80;;
31306;SDS011;17935;51.120;13.132;2023-05-10T13:35:40;1.65;;;1.48;;
31306;SDS011;17935;51.120;13.132;2023-05-10T13:38:05;2.47;;;1.80;;
31306;SDS011;17935;51.120;13.132;2023-05-10T13:40:32;3.92;;;1.70;;
31306;SDS011;17935;51.120;13.132;2023-05-10T13:42:58;11.05;;;1.50;;
31306;SDS011;17935;51.120;13.132;2023-05-10T13:45:24;2.40;;;1.73;;
31306;SDS011;17935;51.120;13.132;2023-05-10T13:47:50;2.05;;;1.80;;
31306;SDS011;17935;51.120;13.132;2023-05-10T13:50:16;3.78;;;1.90;;
31306;SDS011;17935;51.120;13.132;2023-05-10T13:52:43;1.48;;;1.38;;
31306;SDS011;17935;51.120;13.132;2023-05-10T13:55:09;5.03;;;1.60;;
31306;SDS011;17935;51.120;13.132;2023-05-10T13:57:37;2.38;;;1.70;;
31306;SDS011;17935;51.120;13.132;2023-05-10T14:00:03;5.57;;;1.90;;
31306;SDS011;17935;51.120;13.132;2023-05-10T14:02:29;2.58;;;1.80;;
31306;SDS011;17935;51.120;13.132;2023-05-10T14:04:55;4.88;;;2.03;;
31306;SDS011;17935;51.120;13.132;2023-05-10T14:07:21;4.78;;;2.67;;
31306;SDS011;17935;51.120;13.132;2023-05-10T14:09:47;8.00;;;2.72;;
31306;SDS011;17935;51.120;13.132;2023-05-10T14:12:13;11.55;;;2.70;;
31306;SDS011;17935;51.120;13.132;2023-05-10T14:14:39;9.48;;;2.90;;
31306;SDS011;17935;51.120;13.132;2023-05-10T14:17:05;7.22;;;2.80;;
31306;SDS011;17935;51.120;13.132;2023-05-10T14:19:31;5.15;;;2.53;;
31306;SDS011;17935;51.120;13.132;2023-05-10T14:21:58;2.90;;;2.65;;
31306;SDS011;17935;51.120;13.132;2023-05-10T14:24:24;3.67;;;2.60;;
31306;SDS011;17935;51.120;13.132;2023-05-10T14:26:50;3.85;;;2.70;;
31306;SDS011;17935;51.120;13.132;2023-05-10T14:29:19;6.82;;;3.15;;
31306;SDS011;17935;51.120;13.132;2023-05-10T14:31:45;3.35;;;3.00;;
31306;SDS011;17935;51.120;13.132;2023-05-10T14:34:11;3.97;;;2.95;;
31306;SDS011;17935;51.120;13.132;2023-05-10T14:36:37;5.95;;;3.30;;
31306;SDS011;17935;51.120;13.132;2023-05-10T14:39:03;3.40;;;3.10;;
31306;SDS011;17935;51.120;13.132;2023-05-10T14:41:29;3.55;;;2.75;;
31306;SDS011;17935;51.120;13.132;2023-05-10T14:43:55;6.05;;;3.00;;
31306;SDS011;17935;51.120;13.132;2023-05-10T14:46:21;6.00;;;3.50;;
31306;SDS011;17935;51.120;13.132;2023-05-10T14:48:46;4.03;;;3.00;;
31306;SDS011;17935;51.120;13.132;2023-05-10T14:51:12;7.82;;;3.00;;
31306;SDS011;17935;51.120;13.132;2023-05-10T14:53:38;4.63;;;2.88;;